sensor_id;sensor_type;location;lat;lon;timestamp;P1;durP1;ratioP1;P2;durP2;ratioP2
43793;SDS011;29414;44.798;20.366;2023-02-26T00:01:41;2.53;;;2.27;;
43793;SDS011;29414;44.798;20.366;2023-02-26T00:05:41;2.97;;;2.73;;
43793;SDS011;29414;44.798;20.366;2023-02-26T00:09:42;3.20;;;2.03;;
43793;SDS011;29414;44.798;20.366;2023-02-26T00:13:42;2.50;;;2.03;;
43793;SDS011;29414;44.798;20.366;2023-02-26T00:22:02;3.07;;;2.13;;
43793;SDS011;29414;44.798;20.366;2023-02-26T00:26:03;3.07;;;2.00;;
43793;SDS011;29414;44.798;20.366;2023-02-26T00:30:04;2.23;;;1.57;;
43793;SDS011;29414;44.798;20.366;2023-02-26T00:34:05;2.73;;;1.50;;
43793;SDS011;29414;44.798;20.366;2023-02-26T00:38:09;1.53;;;1.30;;
43793;SDS011;29414;44.798;20.366;2023-02-26T00:42:10;3.83;;;1.53;;
43793;SDS011;29414;44.798;20.366;2023-02-26T00:50:19;1.83;;;1.40;;
43793;SDS011;29414;44.798;20.366;2023-02-26T00:54:21;1.30;;;1.20;;
43793;SDS011;29414;44.798;20.366;2023-02-26T00:58:22;1.80;;;1.53;;
43793;SDS011;29414;44.798;20.366;2023-02-26T01:02:22;1.87;;;1.77;;
43793;SDS011;29414;44.798;20.366;2023-02-26T01:06:22;1.37;;;1.17;;
43793;SDS011;29414;44.798;20.366;2023-02-26T01:10:24;1.93;;;1.53;;
43793;SDS011;29414;44.798;20.366;2023-02-26T01:14:25;2.23;;;1.47;;
43793;SDS011;29414;44.798;20.366;2023-02-26T01:18:27;1.03;;;0.93;;
43793;SDS011;29414;44.798;20.366;2023-02-26T01:22:32;1.93;;;1.30;;
43793;SDS011;29414;44.798;20.366;2023-02-26T01:26:34;2.10;;;0.90;;
43793;SDS011;29414;44.798;20.366;2023-02-26T01:30:35;1.70;;;0.77;;
43793;SDS011;29414;44.798;20.366;2023-02-26T01:34:36;1.97;;;1.30;;
43793;SDS011;29414;44.798;20.366;2023-02-26T01:38:40;1.73;;;0.90;;
43793;SDS011;29414;44.798;20.366;2023-02-26T01:42:42;1.33;;;0.60;;
43793;SDS011;29414;44.798;20.366;2023-02-26T01:50:46;0.73;;;0.73;;
43793;SDS011;29414;44.798;20.366;2023-02-26T01:54:46;1.03;;;0.60;;
43793;SDS011;29414;44.798;20.366;2023-02-26T01:58:47;0.85;;;0.80;;
43793;SDS011;29414;44.798;20.366;2023-02-26T02:02:56;2.37;;;0.60;;
43793;SDS011;29414;44.798;20.366;2023-02-26T02:06:56;1.30;;;0.70;;
43793;SDS011;29414;44.798;20.366;2023-02-26T02:10:57;0.60;;;0.60;;
43793;SDS011;29414;44.798;20.366;2023-02-26T02:15:07;0.98;;;0.70;;
43793;SDS011;29414;44.798;20.366;2023-02-26T02:32:30;0.83;;;0.73;;
43793;SDS011;29414;44.798;20.366;2023-02-26T02:40:33;0.70;;;0.70;;
43793;SDS011;29414;44.798;20.366;2023-02-26T02:44:36;1.50;;;0.73;;
43793;SDS011;29414;44.798;20.366;2023-02-26T02:48:38;0.90;;;0.70;;
43793;SDS011;29414;44.798;20.366;2023-02-26T02:52:42;1.30;;;0.70;;
43793;SDS011;29414;44.798;20.366;2023-02-26T02:56:44;1.50;;;0.63;;
43793;SDS011;29414;44.798;20.366;2023-02-26T03:00:49;2.07;;;1.60;;
43793;SDS011;29414;44.798;20.366;2023-02-26T03:04:50;1.83;;;1.60;;
43793;SDS011;29414;44.798;20.366;2023-02-26T03:08:50;2.80;;;2.13;;
43793;SDS011;29414;44.798;20.366;2023-02-26T03:12:51;2.60;;;2.40;;
43793;SDS011;29414;44.798;20.366;2023-02-26T03:20:57;2.60;;;1.00;;
43793;SDS011;29414;44.798;20.366;2023-02-26T03:29:12;0.60;;;0.50;;
43793;SDS011;29414;44.798;20.366;2023-02-26T03:33:18;0.77;;;0.57;;
43793;SDS011;29414;44.798;20.366;2023-02-26T03:37:20;0.60;;;0.60;;
43793;SDS011;29414;44.798;20.366;2023-02-26T03:41:26;1.27;;;0.80;;
43793;SDS011;29414;44.798;20.366;2023-02-26T03:45:32;1.02;;;0.93;;
43793;SDS011;29414;44.798;20.366;2023-02-26T03:53:46;1.37;;;0.90;;
43793;SDS011;29414;44.798;20.366;2023-02-26T03:57:46;0.80;;;0.53;;
43793;SDS011;29414;44.798;20.366;2023-02-26T04:05:59;0.40;;;0.40;;
43793;SDS011;29414;44.798;20.366;2023-02-26T04:09:59;0.90;;;0.40;;
43793;SDS011;29414;44.798;20.366;2023-02-26T04:14:00;0.80;;;0.33;;
43793;SDS011;29414;44.798;20.366;2023-02-26T04:18:00;0.30;;;0.22;;
43793;SDS011;29414;44.798;20.366;2023-02-26T04:22:00;0.73;;;0.40;;
43793;SDS011;29414;44.798;20.366;2023-02-26T04:26:00;0.47;;;0.40;;
43793;SDS011;29414;44.798;20.366;2023-02-26T04:30:01;1.45;;;0.45;;
43793;SDS011;29414;44.798;20.366;2023-02-26T04:34:01;1.10;;;0.40;;
43793;SDS011;29414;44.798;20.366;2023-02-26T04:38:01;0.93;;;0.60;;
43793;SDS011;29414;44.798;20.366;2023-02-26T04:42:01;1.67;;;1.58;;
43793;SDS011;29414;44.798;20.366;2023-02-26T04:46:03;4.27;;;3.97;;
43793;SDS011;29414;44.798;20.366;2023-02-26T04:50:03;3.90;;;3.60;;
43793;SDS011;29414;44.798;20.366;2023-02-26T04:54:04;3.60;;;3.40;;
43793;SDS011;29414;44.798;20.366;2023-02-26T04:58:04;2.07;;;1.97;;
43793;SDS011;29414;44.798;20.366;2023-02-26T05:02:04;2.13;;;2.03;;
43793;SDS011;29414;44.798;20.366;2023-02-26T05:06:04;1.50;;;1.40;;
43793;SDS011;29414;44.798;20.366;2023-02-26T05:10:05;1.23;;;1.10;;
43793;SDS011;29414;44.798;20.366;2023-02-26T05:14:06;0.70;;;0.67;;
43793;SDS011;29414;44.798;20.366;2023-02-26T05:18:06;1.33;;;1.23;;
43793;SDS011;29414;44.798;20.366;2023-02-26T05:22:06;1.13;;;1.03;;
43793;SDS011;29414;44.798;20.366;2023-02-26T05:26:06;1.08;;;0.93;;
43793;SDS011;29414;44.798;20.366;2023-02-26T05:30:07;1.03;;;0.83;;
43793;SDS011;29414;44.798;20.366;2023-02-26T05:34:07;1.23;;;1.07;;
43793;SDS011;29414;44.798;20.366;2023-02-26T05:38:08;1.50;;;1.20;;
43793;SDS011;29414;44.798;20.366;2023-02-26T05:42:08;2.25;;;2.05;;
43793;SDS011;29414;44.798;20.366;2023-02-26T05:46:09;2.30;;;2.10;;
43793;SDS011;29414;44.798;20.366;2023-02-26T05:50:09;1.10;;;1.00;;
43793;SDS011;29414;44.798;20.366;2023-02-26T05:54:10;2.07;;;1.80;;
43793;SDS011;29414;44.798;20.366;2023-02-26T05:58:10;1.03;;;0.97;;
43793;SDS011;29414;44.798;20.366;2023-02-26T06:02:10;2.22;;;1.52;;
43793;SDS011;29414;44.798;20.366;2023-02-26T06:06:12;2.08;;;1.88;;
43793;SDS011;29414;44.798;20.366;2023-02-26T06:10:16;2.10;;;1.60;;
43793;SDS011;29414;44.798;20.366;2023-02-26T06:14:16;2.50;;;1.60;;
43793;SDS011;29414;44.798;20.366;2023-02-26T06:18:17;2.37;;;2.07;;
43793;SDS011;29414;44.798;20.366;2023-02-26T06:22:17;4.88;;;4.38;;
43793;SDS011;29414;44.798;20.366;2023-02-26T06:26:17;5.83;;;4.37;;
43793;SDS011;29414;44.798;20.366;2023-02-26T06:30:18;4.20;;;3.80;;
43793;SDS011;29414;44.798;20.366;2023-02-26T06:34:18;5.60;;;5.10;;
43793;SDS011;29414;44.798;20.366;2023-02-26T06:38:18;6.60;;;6.00;;
43793;SDS011;29414;44.798;20.366;2023-02-26T06:42:19;15.95;;;5.70;;
43793;SDS011;29414;44.798;20.366;2023-02-26T06:46:19;7.97;;;4.18;;
43793;SDS011;29414;44.798;20.366;2023-02-26T06:50:19;4.70;;;4.23;;
43793;SDS011;29414;44.798;20.366;2023-02-26T06:54:19;3.73;;;3.47;;
43793;SDS011;29414;44.798;20.366;2023-02-26T06:58:20;3.42;;;3.13;;
43793;SDS011;29414;44.798;20.366;2023-02-26T07:02:20;3.60;;;3.30;;
43793;SDS011;29414;44.798;20.366;2023-02-26T07:06:22;3.30;;;3.00;;
43793;SDS011;29414;44.798;20.366;2023-02-26T07:10:22;3.70;;;3.40;;
43793;SDS011;29414;44.798;20.366;2023-02-26T07:14:24;4.90;;;4.40;;
43793;SDS011;29414;44.798;20.366;2023-02-26T07:18:24;6.20;;;5.10;;
43793;SDS011;29414;44.798;20.366;2023-02-26T07:22:24;21.95;;;13.32;;
43793;SDS011;29414;44.798;20.366;2023-02-26T07:26:24;16.63;;;13.10;;
43793;SDS011;29414;44.798;20.366;2023-02-26T07:30:25;15.15;;;12.85;;
43793;SDS011;29414;44.798;20.366;2023-02-26T07:34:25;16.60;;;14.27;;
43793;SDS011;29414;44.798;20.366;2023-02-26T07:38:25;35.42;;;15.77;;
43793;SDS011;29414;44.798;20.366;2023-02-26T07:42:26;15.77;;;12.53;;
43793;SDS011;29414;44.798;20.366;2023-02-26T07:46:26;19.42;;;13.52;;
43793;SDS011;29414;44.798;20.366;2023-02-26T07:50:26;17.70;;;13.57;;
43793;SDS011;29414;44.798;20.366;2023-02-26T07:54:26;12.50;;;10.70;;
43793;SDS011;29414;44.798;20.366;2023-02-26T07:58:27;12.00;;;10.77;;
43793;SDS011;29414;44.798;20.366;2023-02-26T08:02:27;21.07;;;16.10;;
43793;SDS011;29414;44.798;20.366;2023-02-26T08:06:27;20.87;;;18.13;;
43793;SDS011;29414;44.798;20.366;2023-02-26T08:10:28;19.80;;;16.70;;
43793;SDS011;29414;44.798;20.366;2023-02-26T08:14:28;22.50;;;17.70;;
43793;SDS011;29414;44.798;20.366;2023-02-26T08:18:28;18.85;;;15.07;;
43793;SDS011;29414;44.798;20.366;2023-02-26T08:22:29;17.30;;;15.27;;
43793;SDS011;29414;44.798;20.366;2023-02-26T08:26:29;18.63;;;15.73;;
43793;SDS011;29414;44.798;20.366;2023-02-26T08:30:29;16.37;;;14.70;;
43793;SDS011;29414;44.798;20.366;2023-02-26T08:34:29;19.87;;;15.83;;
43793;SDS011;29414;44.798;20.366;2023-02-26T08:38:30;15.85;;;13.70;;
43793;SDS011;29414;44.798;20.366;2023-02-26T08:42:30;17.08;;;14.82;;
43793;SDS011;29414;44.798;20.366;2023-02-26T08:46:30;17.27;;;15.18;;
43793;SDS011;29414;44.798;20.366;2023-02-26T08:50:30;19.27;;;16.95;;
43793;SDS011;29414;44.798;20.366;2023-02-26T08:54:31;16.67;;;13.90;;
43793;SDS011;29414;44.798;20.366;2023-02-26T08:58:31;12.73;;;11.48;;
43793;SDS011;29414;44.798;20.366;2023-02-26T09:02:31;14.27;;;12.97;;
43793;SDS011;29414;44.798;20.366;2023-02-26T09:06:31;17.40;;;14.87;;
43793;SDS011;29414;44.798;20.366;2023-02-26T09:10:32;20.40;;;18.20;;
43793;SDS011;29414;44.798;20.366;2023-02-26T09:14:35;27.37;;;23.90;;
43793;SDS011;29414;44.798;20.366;2023-02-26T09:18:35;24.53;;;21.23;;
43793;SDS011;29414;44.798;20.366;2023-02-26T09:22:35;21.70;;;18.50;;
43793;SDS011;29414;44.798;20.366;2023-02-26T09:26:36;21.70;;;18.97;;
43793;SDS011;29414;44.798;20.366;2023-02-26T09:30:37;23.27;;;20.70;;
43793;SDS011;29414;44.798;20.366;2023-02-26T09:34:37;23.70;;;20.57;;
43793;SDS011;29414;44.798;20.366;2023-02-26T09:38:38;22.43;;;20.13;;
43793;SDS011;29414;44.798;20.366;2023-02-26T09:42:50;22.03;;;19.63;;
43793;SDS011;29414;44.798;20.366;2023-02-26T09:47:00;21.73;;;18.13;;
43793;SDS011;29414;44.798;20.366;2023-02-26T09:51:02;19.00;;;16.47;;
43793;SDS011;29414;44.798;20.366;2023-02-26T09:55:16;21.93;;;19.00;;
43793;SDS011;29414;44.798;20.366;2023-02-26T09:59:16;24.57;;;21.93;;
43793;SDS011;29414;44.798;20.366;2023-02-26T10:15:39;20.10;;;17.97;;
43793;SDS011;29414;44.798;20.366;2023-02-26T10:19:41;32.27;;;25.27;;
43793;SDS011;29414;44.798;20.366;2023-02-26T10:23:44;30.97;;;23.40;;
43793;SDS011;29414;44.798;20.366;2023-02-26T10:27:51;22.70;;;17.57;;
43793;SDS011;29414;44.798;20.366;2023-02-26T10:36:02;19.40;;;15.90;;
43793;SDS011;29414;44.798;20.366;2023-02-26T10:44:12;18.20;;;16.30;;
43793;SDS011;29414;44.798;20.366;2023-02-26T10:52:17;19.07;;;17.00;;
43793;SDS011;29414;44.798;20.366;2023-02-26T10:56:23;23.63;;;18.47;;
43793;SDS011;29414;44.798;20.366;2023-02-26T11:00:25;16.73;;;15.00;;
43793;SDS011;29414;44.798;20.366;2023-02-26T11:04:25;17.47;;;15.30;;
43793;SDS011;29414;44.798;20.366;2023-02-26T11:08:27;21.53;;;17.70;;
43793;SDS011;29414;44.798;20.366;2023-02-26T11:12:29;22.57;;;17.03;;
43793;SDS011;29414;44.798;20.366;2023-02-26T11:16:31;19.37;;;17.10;;
43793;SDS011;29414;44.798;20.366;2023-02-26T11:20:38;29.20;;;20.93;;
43793;SDS011;29414;44.798;20.366;2023-02-26T11:24:40;27.13;;;20.23;;
43793;SDS011;29414;44.798;20.366;2023-02-26T11:28:44;20.40;;;16.57;;
43793;SDS011;29414;44.798;20.366;2023-02-26T11:32:45;25.50;;;19.87;;
43793;SDS011;29414;44.798;20.366;2023-02-26T11:36:49;20.33;;;16.77;;
43793;SDS011;29414;44.798;20.366;2023-02-26T11:40:51;17.27;;;15.33;;
43793;SDS011;29414;44.798;20.366;2023-02-26T11:44:53;19.93;;;16.70;;
43793;SDS011;29414;44.798;20.366;2023-02-26T11:48:54;16.93;;;15.13;;
43793;SDS011;29414;44.798;20.366;2023-02-26T11:52:55;20.93;;;15.67;;
43793;SDS011;29414;44.798;20.366;2023-02-26T11:57:04;23.67;;;18.50;;
43793;SDS011;29414;44.798;20.366;2023-02-26T12:01:06;27.43;;;22.03;;
43793;SDS011;29414;44.798;20.366;2023-02-26T12:05:06;24.17;;;19.87;;
43793;SDS011;29414;44.798;20.366;2023-02-26T12:09:11;21.63;;;17.90;;
43793;SDS011;29414;44.798;20.366;2023-02-26T12:17:56;18.70;;;16.20;;
43793;SDS011;29414;44.798;20.366;2023-02-26T12:42:29;26.90;;;21.00;;
43793;SDS011;29414;44.798;20.366;2023-02-26T12:54:46;21.43;;;18.83;;
43793;SDS011;29414;44.798;20.366;2023-02-26T13:24:16;18.73;;;15.70;;
43793;SDS011;29414;44.798;20.366;2023-02-26T13:32:38;26.93;;;15.93;;
43793;SDS011;29414;44.798;20.366;2023-02-26T13:36:39;34.80;;;18.07;;
43793;SDS011;29414;44.798;20.366;2023-02-26T13:48:52;17.10;;;14.50;;
43793;SDS011;29414;44.798;20.366;2023-02-26T13:53:00;14.50;;;12.90;;
43793;SDS011;29414;44.798;20.366;2023-02-26T13:57:05;18.00;;;14.65;;
43793;SDS011;29414;44.798;20.366;2023-02-26T14:01:16;23.07;;;15.17;;
43793;SDS011;29414;44.798;20.366;2023-02-26T14:05:30;22.17;;;14.50;;
43793;SDS011;29414;44.798;20.366;2023-02-26T14:09:35;17.10;;;14.27;;
43793;SDS011;29414;44.798;20.366;2023-02-26T14:13:39;16.27;;;13.33;;
43793;SDS011;29414;44.798;20.366;2023-02-26T14:17:40;18.10;;;12.47;;
43793;SDS011;29414;44.798;20.366;2023-02-26T14:21:48;15.67;;;12.77;;
43793;SDS011;29414;44.798;20.366;2023-02-26T14:25:50;16.57;;;13.23;;
43793;SDS011;29414;44.798;20.366;2023-02-26T14:34:08;16.13;;;12.18;;
43793;SDS011;29414;44.798;20.366;2023-02-26T14:38:17;15.60;;;13.63;;
43793;SDS011;29414;44.798;20.366;2023-02-26T14:42:26;15.73;;;12.53;;
43793;SDS011;29414;44.798;20.366;2023-02-26T14:46:29;15.80;;;12.33;;
43793;SDS011;29414;44.798;20.366;2023-02-26T14:59:52;14.37;;;11.97;;
43793;SDS011;29414;44.798;20.366;2023-02-26T15:03:46;14.80;;;11.90;;
43793;SDS011;29414;44.798;20.366;2023-02-26T15:08:00;15.83;;;13.33;;
43793;SDS011;29414;44.798;20.366;2023-02-26T15:24:35;17.60;;;14.47;;
43793;SDS011;29414;44.798;20.366;2023-02-26T15:28:37;18.97;;;14.67;;
43793;SDS011;29414;44.798;20.366;2023-02-26T15:32:37;19.57;;;16.40;;
43793;SDS011;29414;44.798;20.366;2023-02-26T15:36:47;20.50;;;17.53;;
43793;SDS011;29414;44.798;20.366;2023-02-26T15:40:49;19.27;;;17.17;;
43793;SDS011;29414;44.798;20.366;2023-02-26T15:44:50;21.97;;;18.10;;
43793;SDS011;29414;44.798;20.366;2023-02-26T15:48:58;22.13;;;18.10;;
43793;SDS011;29414;44.798;20.366;2023-02-26T15:53:00;23.70;;;21.13;;
43793;SDS011;29414;44.798;20.366;2023-02-26T15:57:01;20.67;;;18.53;;
43793;SDS011;29414;44.798;20.366;2023-02-26T16:01:02;22.90;;;19.67;;
43793;SDS011;29414;44.798;20.366;2023-02-26T16:05:03;21.90;;;19.60;;
43793;SDS011;29414;44.798;20.366;2023-02-26T16:09:04;22.53;;;18.57;;
43793;SDS011;29414;44.798;20.366;2023-02-26T16:13:05;19.53;;;17.43;;
43793;SDS011;29414;44.798;20.366;2023-02-26T16:17:07;20.10;;;17.77;;
43793;SDS011;29414;44.798;20.366;2023-02-26T16:21:13;23.77;;;20.20;;
43793;SDS011;29414;44.798;20.366;2023-02-26T16:25:22;28.00;;;21.50;;
43793;SDS011;29414;44.798;20.366;2023-02-26T16:29:24;25.00;;;22.30;;
43793;SDS011;29414;44.798;20.366;2023-02-26T16:33:26;26.13;;;22.63;;
43793;SDS011;29414;44.798;20.366;2023-02-26T16:41:34;28.65;;;22.23;;
43793;SDS011;29414;44.798;20.366;2023-02-26T16:49:36;25.47;;;22.83;;
43793;SDS011;29414;44.798;20.366;2023-02-26T16:53:48;24.57;;;21.63;;
43793;SDS011;29414;44.798;20.366;2023-02-26T16:57:49;23.40;;;21.00;;
43793;SDS011;29414;44.798;20.366;2023-02-26T17:06:01;24.75;;;22.25;;
43793;SDS011;29414;44.798;20.366;2023-02-26T17:10:26;25.80;;;20.53;;
43793;SDS011;29414;44.798;20.366;2023-02-26T17:14:23;25.13;;;19.27;;
43793;SDS011;29414;44.798;20.366;2023-02-26T17:18:24;21.37;;;19.13;;
43793;SDS011;29414;44.798;20.366;2023-02-26T17:22:26;22.43;;;20.10;;
43793;SDS011;29414;44.798;20.366;2023-02-26T17:26:27;23.27;;;20.77;;
43793;SDS011;29414;44.798;20.366;2023-02-26T17:30:28;24.73;;;19.87;;
43793;SDS011;29414;44.798;20.366;2023-02-26T17:34:31;22.50;;;20.17;;
43793;SDS011;29414;44.798;20.366;2023-02-26T17:38:32;21.97;;;18.40;;
43793;SDS011;29414;44.798;20.366;2023-02-26T17:42:32;21.40;;;19.20;;
43793;SDS011;29414;44.798;20.366;2023-02-26T17:46:33;22.40;;;19.10;;
43793;SDS011;29414;44.798;20.366;2023-02-26T17:54:39;24.02;;;19.40;;
43793;SDS011;29414;44.798;20.366;2023-02-26T17:58:39;22.50;;;19.67;;
43793;SDS011;29414;44.798;20.366;2023-02-26T18:02:40;22.17;;;19.77;;
43793;SDS011;29414;44.798;20.366;2023-02-26T18:06:40;23.63;;;20.48;;
43793;SDS011;29414;44.798;20.366;2023-02-26T18:10:40;24.93;;;21.47;;
43793;SDS011;29414;44.798;20.366;2023-02-26T18:14:41;24.60;;;20.27;;
43793;SDS011;29414;44.798;20.366;2023-02-26T18:18:41;22.53;;;18.00;;
43793;SDS011;29414;44.798;20.366;2023-02-26T18:22:42;18.40;;;16.40;;
43793;SDS011;29414;44.798;20.366;2023-02-26T18:26:42;20.43;;;11.77;;
43793;SDS011;29414;44.798;20.366;2023-02-26T18:30:43;12.75;;;11.32;;
43793;SDS011;29414;44.798;20.366;2023-02-26T18:34:43;17.50;;;15.70;;
43793;SDS011;29414;44.798;20.366;2023-02-26T18:38:44;11.03;;;9.90;;
43793;SDS011;29414;44.798;20.366;2023-02-26T18:42:44;9.13;;;8.23;;
43793;SDS011;29414;44.798;20.366;2023-02-26T18:46:44;13.65;;;10.38;;
43793;SDS011;29414;44.798;20.366;2023-02-26T18:50:44;11.15;;;8.70;;
43793;SDS011;29414;44.798;20.366;2023-02-26T18:54:45;7.33;;;6.30;;
43793;SDS011;29414;44.798;20.366;2023-02-26T18:58:45;8.20;;;7.40;;
43793;SDS011;29414;44.798;20.366;2023-02-26T19:02:46;8.93;;;7.00;;
43793;SDS011;29414;44.798;20.366;2023-02-26T19:06:46;6.80;;;6.10;;
43793;SDS011;29414;44.798;20.366;2023-02-26T19:10:46;6.72;;;5.78;;
43793;SDS011;29414;44.798;20.366;2023-02-26T19:14:46;6.50;;;5.60;;
43793;SDS011;29414;44.798;20.366;2023-02-26T19:18:47;9.73;;;8.68;;
43793;SDS011;29414;44.798;20.366;2023-02-26T19:22:47;7.97;;;6.97;;
43793;SDS011;29414;44.798;20.366;2023-02-26T19:26:48;8.57;;;7.37;;
43793;SDS011;29414;44.798;20.366;2023-02-26T19:30:51;8.03;;;7.23;;
43793;SDS011;29414;44.798;20.366;2023-02-26T19:34:52;8.13;;;7.33;;
43793;SDS011;29414;44.798;20.366;2023-02-26T19:38:52;7.75;;;6.93;;
43793;SDS011;29414;44.798;20.366;2023-02-26T19:42:52;6.85;;;6.03;;
43793;SDS011;29414;44.798;20.366;2023-02-26T19:46:53;6.80;;;6.10;;
43793;SDS011;29414;44.798;20.366;2023-02-26T19:50:54;7.53;;;6.80;;
43793;SDS011;29414;44.798;20.366;2023-02-26T19:54:54;7.77;;;7.00;;
43793;SDS011;29414;44.798;20.366;2023-02-26T19:58:54;9.23;;;7.97;;
43793;SDS011;29414;44.798;20.366;2023-02-26T20:02:55;9.20;;;7.77;;
43793;SDS011;29414;44.798;20.366;2023-02-26T20:06:55;7.53;;;6.83;;
43793;SDS011;29414;44.798;20.366;2023-02-26T20:10:56;7.43;;;6.73;;
43793;SDS011;29414;44.798;20.366;2023-02-26T20:14:56;6.73;;;6.03;;
43793;SDS011;29414;44.798;20.366;2023-02-26T20:18:59;7.63;;;6.63;;
43793;SDS011;29414;44.798;20.366;2023-02-26T20:22:59;7.43;;;6.70;;
43793;SDS011;29414;44.798;20.366;2023-02-26T20:26:59;7.90;;;6.60;;
43793;SDS011;29414;44.798;20.366;2023-02-26T20:31:00;8.73;;;7.50;;
43793;SDS011;29414;44.798;20.366;2023-02-26T20:35:00;8.23;;;7.40;;
43793;SDS011;29414;44.798;20.366;2023-02-26T20:39:00;9.50;;;8.35;;
43793;SDS011;29414;44.798;20.366;2023-02-26T20:43:01;9.60;;;8.27;;
43793;SDS011;29414;44.798;20.366;2023-02-26T20:47:01;9.85;;;8.82;;
43793;SDS011;29414;44.798;20.366;2023-02-26T20:51:02;8.80;;;7.90;;
43793;SDS011;29414;44.798;20.366;2023-02-26T20:55:05;6.87;;;6.17;;
43793;SDS011;29414;44.798;20.366;2023-02-26T20:59:05;5.87;;;5.30;;
43793;SDS011;29414;44.798;20.366;2023-02-26T21:03:06;6.07;;;5.57;;
43793;SDS011;29414;44.798;20.366;2023-02-26T21:07:07;7.03;;;6.17;;
43793;SDS011;29414;44.798;20.366;2023-02-26T21:11:20;6.77;;;6.07;;
43793;SDS011;29414;44.798;20.366;2023-02-26T21:15:20;9.55;;;7.68;;
43793;SDS011;29414;44.798;20.366;2023-02-26T21:19:21;7.53;;;6.72;;
43793;SDS011;29414;44.798;20.366;2023-02-26T21:23:22;8.10;;;7.30;;
43793;SDS011;29414;44.798;20.366;2023-02-26T21:27:22;7.68;;;6.88;;
43793;SDS011;29414;44.798;20.366;2023-02-26T21:31:23;8.25;;;7.43;;
43793;SDS011;29414;44.798;20.366;2023-02-26T21:35:23;7.60;;;6.55;;
43793;SDS011;29414;44.798;20.366;2023-02-26T21:39:23;7.20;;;6.40;;
43793;SDS011;29414;44.798;20.366;2023-02-26T21:43:23;7.37;;;6.43;;
43793;SDS011;29414;44.798;20.366;2023-02-26T21:47:24;6.38;;;5.30;;
43793;SDS011;29414;44.798;20.366;2023-02-26T21:51:24;5.93;;;5.33;;
43793;SDS011;29414;44.798;20.366;2023-02-26T21:55:24;6.53;;;5.93;;
43793;SDS011;29414;44.798;20.366;2023-02-26T21:59:25;5.20;;;4.80;;
43793;SDS011;29414;44.798;20.366;2023-02-26T22:03:25;5.43;;;4.90;;
43793;SDS011;29414;44.798;20.366;2023-02-26T22:07:25;8.37;;;5.83;;
43793;SDS011;29414;44.798;20.366;2023-02-26T22:11:25;6.93;;;5.68;;
43793;SDS011;29414;44.798;20.366;2023-02-26T22:15:25;7.40;;;6.63;;
43793;SDS011;29414;44.798;20.366;2023-02-26T22:19:26;7.63;;;6.53;;
43793;SDS011;29414;44.798;20.366;2023-02-26T22:23:26;7.27;;;6.50;;
43793;SDS011;29414;44.798;20.366;2023-02-26T22:27:26;7.75;;;7.03;;
43793;SDS011;29414;44.798;20.366;2023-02-26T22:31:27;14.77;;;10.00;;
43793;SDS011;29414;44.798;20.366;2023-02-26T22:35:27;14.30;;;9.10;;
43793;SDS011;29414;44.798;20.366;2023-02-26T22:39:27;22.60;;;12.40;;
43793;SDS011;29414;44.798;20.366;2023-02-26T22:43:28;23.17;;;12.95;;
43793;SDS011;29414;44.798;20.366;2023-02-26T22:47:28;26.00;;;13.45;;
43793;SDS011;29414;44.798;20.366;2023-02-26T22:51:28;19.70;;;12.38;;
43793;SDS011;29414;44.798;20.366;2023-02-26T22:55:28;23.67;;;13.30;;
43793;SDS011;29414;44.798;20.366;2023-02-26T22:59:29;31.00;;;14.80;;
43793;SDS011;29414;44.798;20.366;2023-02-26T23:03:29;21.70;;;12.68;;
43793;SDS011;29414;44.798;20.366;2023-02-26T23:07:30;13.43;;;11.57;;
43793;SDS011;29414;44.798;20.366;2023-02-26T23:11:31;12.40;;;10.53;;
43793;SDS011;29414;44.798;20.366;2023-02-26T23:15:31;12.57;;;10.20;;
43793;SDS011;29414;44.798;20.366;2023-02-26T23:19:31;12.35;;;10.48;;
43793;SDS011;29414;44.798;20.366;2023-02-26T23:23:32;11.93;;;9.80;;
43793;SDS011;29414;44.798;20.366;2023-02-26T23:27:32;12.77;;;10.57;;
43793;SDS011;29414;44.798;20.366;2023-02-26T23:31:32;10.87;;;9.77;;
43793;SDS011;29414;44.798;20.366;2023-02-26T23:35:33;11.60;;;9.20;;
43793;SDS011;29414;44.798;20.366;2023-02-26T23:39:33;11.60;;;9.17;;
43793;SDS011;29414;44.798;20.366;2023-02-26T23:43:33;11.75;;;9.70;;
43793;SDS011;29414;44.798;20.366;2023-02-26T23:47:34;11.55;;;8.98;;
43793;SDS011;29414;44.798;20.366;2023-02-26T23:51:34;9.18;;;8.23;;
43793;SDS011;29414;44.798;20.366;2023-02-26T23:55:34;11.07;;;9.15;;
43793;SDS011;29414;44.798;20.366;2023-02-26T23:59:34;10.93;;;8.18;;
